sensor_id;sensor_type;location;lat;lon;timestamp;P1;durP1;ratioP1;P2;durP2;ratioP2
37069;SDS011;22984;48.862;9.320;2023-02-12T00:02:19;63.08;;;41.90;;
37069;SDS011;22984;48.862;9.320;2023-02-12T00:04:46;60.42;;;39.45;;
37069;SDS011;22984;48.862;9.320;2023-02-12T00:07:12;54.28;;;36.45;;
37069;SDS011;22984;48.862;9.320;2023-02-12T00:09:38;48.75;;;36.05;;
37069;SDS011;22984;48.862;9.320;2023-02-12T00:12:04;50.55;;;34.78;;
37069;SDS011;22984;48.862;9.320;2023-02-12T00:14:30;48.30;;;32.30;;
37069;SDS011;22984;48.862;9.320;2023-02-12T00:16:56;48.03;;;32.70;;
37069;SDS011;22984;48.862;9.320;2023-02-12T00:19:23;49.73;;;34.13;;
37069;SDS011;22984;48.862;9.320;2023-02-12T00:21:49;47.55;;;34.50;;
37069;SDS011;22984;48.862;9.320;2023-02-12T00:24:15;49.70;;;33.22;;
37069;SDS011;22984;48.862;9.320;2023-02-12T00:26:41;43.42;;;31.35;;
37069;SDS011;22984;48.862;9.320;2023-02-12T00:29:08;47.22;;;30.08;;
37069;SDS011;22984;48.862;9.320;2023-02-12T00:31:34;47.47;;;30.20;;
37069;SDS011;22984;48.862;9.320;2023-02-12T00:34:00;50.15;;;32.85;;
37069;SDS011;22984;48.862;9.320;2023-02-12T00:36:27;47.08;;;33.67;;
37069;SDS011;22984;48.862;9.320;2023-02-12T00:38:54;50.23;;;33.17;;
37069;SDS011;22984;48.862;9.320;2023-02-12T00:41:21;50.57;;;34.67;;
37069;SDS011;22984;48.862;9.320;2023-02-12T00:43:47;45.17;;;32.80;;
37069;SDS011;22984;48.862;9.320;2023-02-12T00:46:14;46.80;;;32.70;;
37069;SDS011;22984;48.862;9.320;2023-02-12T00:48:40;44.13;;;31.40;;
37069;SDS011;22984;48.862;9.320;2023-02-12T00:51:06;47.22;;;32.47;;
37069;SDS011;22984;48.862;9.320;2023-02-12T00:53:33;47.33;;;30.95;;
37069;SDS011;22984;48.862;9.320;2023-02-12T00:55:59;45.15;;;31.58;;
37069;SDS011;22984;48.862;9.320;2023-02-12T00:58:25;43.20;;;30.80;;
37069;SDS011;22984;48.862;9.320;2023-02-12T01:00:51;42.58;;;30.50;;
37069;SDS011;22984;48.862;9.320;2023-02-12T01:03:18;43.42;;;31.00;;
37069;SDS011;22984;48.862;9.320;2023-02-12T01:05:44;42.75;;;31.15;;
37069;SDS011;22984;48.862;9.320;2023-02-12T01:08:11;47.15;;;32.83;;
37069;SDS011;22984;48.862;9.320;2023-02-12T01:10:37;45.95;;;31.55;;
37069;SDS011;22984;48.862;9.320;2023-02-12T01:13:03;45.25;;;31.17;;
37069;SDS011;22984;48.862;9.320;2023-02-12T01:15:29;47.05;;;32.22;;
37069;SDS011;22984;48.862;9.320;2023-02-12T01:17:55;51.33;;;35.47;;
37069;SDS011;22984;48.862;9.320;2023-02-12T01:20:22;52.60;;;35.42;;
37069;SDS011;22984;48.862;9.320;2023-02-12T01:22:49;50.00;;;34.85;;
37069;SDS011;22984;48.862;9.320;2023-02-12T01:25:15;51.85;;;36.00;;
37069;SDS011;22984;48.862;9.320;2023-02-12T01:27:42;57.00;;;36.25;;
37069;SDS011;22984;48.862;9.320;2023-02-12T01:30:09;50.97;;;35.90;;
37069;SDS011;22984;48.862;9.320;2023-02-12T01:32:36;52.95;;;37.20;;
37069;SDS011;22984;48.862;9.320;2023-02-12T01:35:02;58.10;;;38.22;;
37069;SDS011;22984;48.862;9.320;2023-02-12T01:37:28;60.58;;;40.63;;
37069;SDS011;22984;48.862;9.320;2023-02-12T01:39:54;55.95;;;38.13;;
37069;SDS011;22984;48.862;9.320;2023-02-12T01:42:20;55.72;;;38.70;;
37069;SDS011;22984;48.862;9.320;2023-02-12T01:47:31;45.30;;;33.20;;
37069;SDS011;22984;48.862;9.320;2023-02-12T01:49:57;49.42;;;31.05;;
37069;SDS011;22984;48.862;9.320;2023-02-12T01:52:27;41.20;;;28.02;;
37069;SDS011;22984;48.862;9.320;2023-02-12T01:54:55;44.42;;;29.45;;
37069;SDS011;22984;48.862;9.320;2023-02-12T01:57:23;43.88;;;29.92;;
37069;SDS011;22984;48.862;9.320;2023-02-12T01:59:51;39.70;;;29.42;;
37069;SDS011;22984;48.862;9.320;2023-02-12T02:02:18;44.20;;;31.25;;
37069;SDS011;22984;48.862;9.320;2023-02-12T02:04:45;43.47;;;30.70;;
37069;SDS011;22984;48.862;9.320;2023-02-12T02:07:13;46.03;;;30.65;;
37069;SDS011;22984;48.862;9.320;2023-02-12T02:09:39;46.90;;;32.38;;
37069;SDS011;22984;48.862;9.320;2023-02-12T02:12:05;49.97;;;31.87;;
37069;SDS011;22984;48.862;9.320;2023-02-12T02:14:51;50.15;;;34.83;;
37069;SDS011;22984;48.862;9.320;2023-02-12T02:22:40;49.33;;;32.97;;
37069;SDS011;22984;48.862;9.320;2023-02-12T02:33:11;47.38;;;34.30;;
37069;SDS011;22984;48.862;9.320;2023-02-12T02:35:39;48.20;;;32.78;;
37069;SDS011;22984;48.862;9.320;2023-02-12T02:38:17;47.47;;;32.20;;
37069;SDS011;22984;48.862;9.320;2023-02-12T02:43:15;45.03;;;32.03;;
37069;SDS011;22984;48.862;9.320;2023-02-12T02:45:44;44.35;;;30.38;;
37069;SDS011;22984;48.862;9.320;2023-02-12T02:48:13;47.63;;;32.53;;
37069;SDS011;22984;48.862;9.320;2023-02-12T02:50:42;46.58;;;30.75;;
37069;SDS011;22984;48.862;9.320;2023-02-12T02:53:12;44.08;;;30.50;;
37069;SDS011;22984;48.862;9.320;2023-02-12T02:55:41;47.20;;;32.00;;
37069;SDS011;22984;48.862;9.320;2023-02-12T02:58:10;47.97;;;30.83;;
37069;SDS011;22984;48.862;9.320;2023-02-12T03:00:38;46.67;;;31.23;;
37069;SDS011;22984;48.862;9.320;2023-02-12T03:03:06;45.22;;;31.85;;
37069;SDS011;22984;48.862;9.320;2023-02-12T03:05:36;46.63;;;31.60;;
37069;SDS011;22984;48.862;9.320;2023-02-12T03:08:06;47.42;;;30.75;;
37069;SDS011;22984;48.862;9.320;2023-02-12T03:10:35;42.88;;;31.90;;
37069;SDS011;22984;48.862;9.320;2023-02-12T03:13:06;44.67;;;29.80;;
37069;SDS011;22984;48.862;9.320;2023-02-12T03:15:34;42.92;;;31.75;;
37069;SDS011;22984;48.862;9.320;2023-02-12T03:18:04;45.17;;;30.90;;
37069;SDS011;22984;48.862;9.320;2023-02-12T03:20:32;41.65;;;30.02;;
37069;SDS011;22984;48.862;9.320;2023-02-12T03:23:03;45.13;;;30.80;;
37069;SDS011;22984;48.862;9.320;2023-02-12T03:25:37;47.75;;;33.78;;
37069;SDS011;22984;48.862;9.320;2023-02-12T03:28:06;45.67;;;31.83;;
37069;SDS011;22984;48.862;9.320;2023-02-12T03:30:44;46.40;;;32.92;;
37069;SDS011;22984;48.862;9.320;2023-02-12T03:33:26;49.63;;;33.43;;
37069;SDS011;22984;48.862;9.320;2023-02-12T03:35:58;48.13;;;32.70;;
37069;SDS011;22984;48.862;9.320;2023-02-12T03:38:33;46.45;;;32.95;;
37069;SDS011;22984;48.862;9.320;2023-02-12T03:43:35;40.42;;;28.95;;
37069;SDS011;22984;48.862;9.320;2023-02-12T03:48:39;39.33;;;28.65;;
37069;SDS011;22984;48.862;9.320;2023-02-12T03:54:02;42.80;;;29.77;;
37069;SDS011;22984;48.862;9.320;2023-02-12T03:58:55;39.67;;;29.50;;
37069;SDS011;22984;48.862;9.320;2023-02-12T04:01:21;44.30;;;30.73;;
37069;SDS011;22984;48.862;9.320;2023-02-12T04:03:47;41.55;;;29.13;;
37069;SDS011;22984;48.862;9.320;2023-02-12T04:06:20;42.40;;;30.30;;
37069;SDS011;22984;48.862;9.320;2023-02-12T04:08:46;41.95;;;29.42;;
37069;SDS011;22984;48.862;9.320;2023-02-12T04:11:16;45.45;;;30.60;;
37069;SDS011;22984;48.862;9.320;2023-02-12T04:16:24;42.45;;;29.95;;
37069;SDS011;22984;48.862;9.320;2023-02-12T04:18:51;41.63;;;29.50;;
37069;SDS011;22984;48.862;9.320;2023-02-12T04:23:49;44.35;;;30.45;;
37069;SDS011;22984;48.862;9.320;2023-02-12T04:28:58;44.45;;;30.08;;
37069;SDS011;22984;48.862;9.320;2023-02-12T04:36:41;41.13;;;29.73;;
37069;SDS011;22984;48.862;9.320;2023-02-12T04:39:11;42.83;;;30.95;;
37069;SDS011;22984;48.862;9.320;2023-02-12T04:41:40;47.05;;;31.30;;
37069;SDS011;22984;48.862;9.320;2023-02-12T04:44:14;42.25;;;30.17;;
37069;SDS011;22984;48.862;9.320;2023-02-12T04:46:40;46.13;;;30.42;;
37069;SDS011;22984;48.862;9.320;2023-02-12T04:49:07;41.80;;;30.27;;
37069;SDS011;22984;48.862;9.320;2023-02-12T04:51:37;42.58;;;30.63;;
37069;SDS011;22984;48.862;9.320;2023-02-12T04:54:03;43.47;;;31.55;;
37069;SDS011;22984;48.862;9.320;2023-02-12T04:56:29;47.13;;;31.45;;
37069;SDS011;22984;48.862;9.320;2023-02-12T04:58:55;41.17;;;30.15;;
37069;SDS011;22984;48.862;9.320;2023-02-12T05:01:23;46.17;;;31.73;;
37069;SDS011;22984;48.862;9.320;2023-02-12T05:03:50;40.45;;;30.73;;
37069;SDS011;22984;48.862;9.320;2023-02-12T05:06:16;46.17;;;30.25;;
37069;SDS011;22984;48.862;9.320;2023-02-12T05:08:42;43.97;;;30.85;;
37069;SDS011;22984;48.862;9.320;2023-02-12T05:11:09;40.95;;;29.58;;
37069;SDS011;22984;48.862;9.320;2023-02-12T05:13:36;41.72;;;30.40;;
37069;SDS011;22984;48.862;9.320;2023-02-12T05:16:03;41.00;;;29.30;;
37069;SDS011;22984;48.862;9.320;2023-02-12T05:18:29;43.50;;;31.33;;
37069;SDS011;22984;48.862;9.320;2023-02-12T05:20:56;44.90;;;29.70;;
37069;SDS011;22984;48.862;9.320;2023-02-12T05:23:25;42.35;;;30.95;;
37069;SDS011;22984;48.862;9.320;2023-02-12T05:25:51;41.20;;;30.35;;
37069;SDS011;22984;48.862;9.320;2023-02-12T05:28:17;43.67;;;30.73;;
37069;SDS011;22984;48.862;9.320;2023-02-12T05:30:43;38.58;;;30.00;;
37069;SDS011;22984;48.862;9.320;2023-02-12T05:33:09;42.30;;;30.50;;
37069;SDS011;22984;48.862;9.320;2023-02-12T05:35:35;43.90;;;30.10;;
37069;SDS011;22984;48.862;9.320;2023-02-12T05:38:01;47.05;;;31.13;;
37069;SDS011;22984;48.862;9.320;2023-02-12T05:40:27;44.45;;;31.17;;
37069;SDS011;22984;48.862;9.320;2023-02-12T05:42:53;45.92;;;30.90;;
37069;SDS011;22984;48.862;9.320;2023-02-12T05:45:19;42.50;;;31.08;;
37069;SDS011;22984;48.862;9.320;2023-02-12T05:47:45;43.22;;;30.63;;
37069;SDS011;22984;48.862;9.320;2023-02-12T05:50:11;44.60;;;31.33;;
37069;SDS011;22984;48.862;9.320;2023-02-12T05:52:37;47.60;;;31.02;;
37069;SDS011;22984;48.862;9.320;2023-02-12T05:55:04;42.50;;;30.33;;
37069;SDS011;22984;48.862;9.320;2023-02-12T05:57:30;42.70;;;31.38;;
37069;SDS011;22984;48.862;9.320;2023-02-12T05:59:56;45.85;;;31.27;;
37069;SDS011;22984;48.862;9.320;2023-02-12T06:02:22;44.13;;;31.90;;
37069;SDS011;22984;48.862;9.320;2023-02-12T06:04:48;43.50;;;29.98;;
37069;SDS011;22984;48.862;9.320;2023-02-12T06:07:14;44.25;;;30.88;;
37069;SDS011;22984;48.862;9.320;2023-02-12T06:09:40;43.42;;;30.42;;
37069;SDS011;22984;48.862;9.320;2023-02-12T06:12:06;46.00;;;31.45;;
37069;SDS011;22984;48.862;9.320;2023-02-12T06:14:32;43.83;;;30.42;;
37069;SDS011;22984;48.862;9.320;2023-02-12T06:16:58;44.25;;;31.33;;
37069;SDS011;22984;48.862;9.320;2023-02-12T06:19:24;45.00;;;31.50;;
37069;SDS011;22984;48.862;9.320;2023-02-12T06:21:50;42.92;;;31.65;;
37069;SDS011;22984;48.862;9.320;2023-02-12T06:24:16;46.22;;;31.15;;
37069;SDS011;22984;48.862;9.320;2023-02-12T06:26:42;49.57;;;33.00;;
37069;SDS011;22984;48.862;9.320;2023-02-12T06:29:08;45.50;;;30.50;;
37069;SDS011;22984;48.862;9.320;2023-02-12T06:31:35;47.80;;;32.27;;
37069;SDS011;22984;48.862;9.320;2023-02-12T06:34:05;49.90;;;34.13;;
37069;SDS011;22984;48.862;9.320;2023-02-12T06:36:32;46.60;;;32.80;;
37069;SDS011;22984;48.862;9.320;2023-02-12T06:38:59;43.03;;;31.55;;
37069;SDS011;22984;48.862;9.320;2023-02-12T06:41:26;44.90;;;31.42;;
37069;SDS011;22984;48.862;9.320;2023-02-12T06:43:52;44.97;;;29.92;;
37069;SDS011;22984;48.862;9.320;2023-02-12T06:46:18;44.20;;;30.80;;
37069;SDS011;22984;48.862;9.320;2023-02-12T06:48:44;43.90;;;31.17;;
37069;SDS011;22984;48.862;9.320;2023-02-12T06:51:12;42.20;;;29.80;;
37069;SDS011;22984;48.862;9.320;2023-02-12T06:53:38;50.33;;;33.80;;
37069;SDS011;22984;48.862;9.320;2023-02-12T06:56:05;48.67;;;32.47;;
37069;SDS011;22984;48.862;9.320;2023-02-12T06:58:35;48.58;;;32.55;;
37069;SDS011;22984;48.862;9.320;2023-02-12T07:01:34;54.92;;;36.13;;
37069;SDS011;22984;48.862;9.320;2023-02-12T07:03:54;54.35;;;34.25;;
37069;SDS011;22984;48.862;9.320;2023-02-12T07:06:21;46.83;;;31.37;;
37069;SDS011;22984;48.862;9.320;2023-02-12T07:08:47;45.60;;;32.72;;
37069;SDS011;22984;48.862;9.320;2023-02-12T07:11:13;47.80;;;33.53;;
37069;SDS011;22984;48.862;9.320;2023-02-12T07:13:40;46.05;;;31.95;;
37069;SDS011;22984;48.862;9.320;2023-02-12T07:16:08;46.72;;;32.75;;
37069;SDS011;22984;48.862;9.320;2023-02-12T07:18:35;56.42;;;39.33;;
37069;SDS011;22984;48.862;9.320;2023-02-12T07:21:02;62.00;;;42.40;;
37069;SDS011;22984;48.862;9.320;2023-02-12T07:23:28;54.83;;;38.30;;
37069;SDS011;22984;48.862;9.320;2023-02-12T07:25:55;56.38;;;36.97;;
37069;SDS011;22984;48.862;9.320;2023-02-12T07:28:21;104.53;;;59.92;;
37069;SDS011;22984;48.862;9.320;2023-02-12T07:30:47;61.30;;;40.83;;
37069;SDS011;22984;48.862;9.320;2023-02-12T07:33:13;71.22;;;43.45;;
37069;SDS011;22984;48.862;9.320;2023-02-12T07:35:39;55.58;;;36.65;;
37069;SDS011;22984;48.862;9.320;2023-02-12T07:38:05;48.97;;;35.60;;
37069;SDS011;22984;48.862;9.320;2023-02-12T07:40:31;48.72;;;36.35;;
37069;SDS011;22984;48.862;9.320;2023-02-12T07:42:57;54.55;;;41.03;;
37069;SDS011;22984;48.862;9.320;2023-02-12T07:45:23;54.30;;;37.30;;
37069;SDS011;22984;48.862;9.320;2023-02-12T07:47:49;54.50;;;38.75;;
37069;SDS011;22984;48.862;9.320;2023-02-12T07:50:15;50.63;;;36.33;;
37069;SDS011;22984;48.862;9.320;2023-02-12T07:52:41;51.15;;;36.67;;
37069;SDS011;22984;48.862;9.320;2023-02-12T07:55:07;53.75;;;37.72;;
37069;SDS011;22984;48.862;9.320;2023-02-12T07:57:34;54.00;;;38.15;;
37069;SDS011;22984;48.862;9.320;2023-02-12T08:00:00;55.03;;;36.85;;
37069;SDS011;22984;48.862;9.320;2023-02-12T08:02:26;58.67;;;39.08;;
37069;SDS011;22984;48.862;9.320;2023-02-12T08:04:55;55.13;;;36.63;;
37069;SDS011;22984;48.862;9.320;2023-02-12T08:07:21;50.10;;;35.15;;
37069;SDS011;22984;48.862;9.320;2023-02-12T08:09:48;46.92;;;33.85;;
37069;SDS011;22984;48.862;9.320;2023-02-12T08:12:15;50.50;;;34.60;;
37069;SDS011;22984;48.862;9.320;2023-02-12T08:14:41;44.90;;;33.50;;
37069;SDS011;22984;48.862;9.320;2023-02-12T08:17:07;46.03;;;33.92;;
37069;SDS011;22984;48.862;9.320;2023-02-12T08:19:33;50.28;;;34.95;;
37069;SDS011;22984;48.862;9.320;2023-02-12T08:21:59;50.33;;;35.38;;
37069;SDS011;22984;48.862;9.320;2023-02-12T08:24:27;48.72;;;35.50;;
37069;SDS011;22984;48.862;9.320;2023-02-12T08:26:53;51.78;;;35.70;;
37069;SDS011;22984;48.862;9.320;2023-02-12T08:29:21;55.53;;;36.67;;
37069;SDS011;22984;48.862;9.320;2023-02-12T08:31:48;49.28;;;37.95;;
37069;SDS011;22984;48.862;9.320;2023-02-12T08:34:18;51.45;;;36.55;;
37069;SDS011;22984;48.862;9.320;2023-02-12T08:36:45;51.15;;;34.95;;
37069;SDS011;22984;48.862;9.320;2023-02-12T08:39:12;53.28;;;38.00;;
37069;SDS011;22984;48.862;9.320;2023-02-12T08:41:38;53.80;;;35.78;;
37069;SDS011;22984;48.862;9.320;2023-02-12T08:44:06;52.50;;;36.63;;
37069;SDS011;22984;48.862;9.320;2023-02-12T08:46:36;51.10;;;36.78;;
37069;SDS011;22984;48.862;9.320;2023-02-12T08:49:03;49.20;;;36.10;;
37069;SDS011;22984;48.862;9.320;2023-02-12T08:51:31;50.97;;;36.60;;
37069;SDS011;22984;48.862;9.320;2023-02-12T08:53:58;51.23;;;37.47;;
37069;SDS011;22984;48.862;9.320;2023-02-12T08:56:25;51.88;;;37.17;;
37069;SDS011;22984;48.862;9.320;2023-02-12T08:58:52;49.05;;;36.97;;
37069;SDS011;22984;48.862;9.320;2023-02-12T09:01:20;54.65;;;37.97;;
37069;SDS011;22984;48.862;9.320;2023-02-12T09:03:46;52.75;;;38.40;;
37069;SDS011;22984;48.862;9.320;2023-02-12T09:06:13;53.58;;;39.05;;
37069;SDS011;22984;48.862;9.320;2023-02-12T09:08:39;53.13;;;38.67;;
37069;SDS011;22984;48.862;9.320;2023-02-12T09:11:06;56.15;;;39.72;;
37069;SDS011;22984;48.862;9.320;2023-02-12T09:13:32;55.97;;;39.33;;
37069;SDS011;22984;48.862;9.320;2023-02-12T09:15:59;56.83;;;40.20;;
37069;SDS011;22984;48.862;9.320;2023-02-12T09:18:26;57.05;;;41.28;;
37069;SDS011;22984;48.862;9.320;2023-02-12T09:20:52;53.30;;;39.05;;
37069;SDS011;22984;48.862;9.320;2023-02-12T09:23:18;54.40;;;38.78;;
37069;SDS011;22984;48.862;9.320;2023-02-12T09:25:44;56.25;;;39.35;;
37069;SDS011;22984;48.862;9.320;2023-02-12T09:28:11;59.72;;;40.47;;
37069;SDS011;22984;48.862;9.320;2023-02-12T09:30:38;56.65;;;39.45;;
37069;SDS011;22984;48.862;9.320;2023-02-12T09:33:04;56.95;;;39.65;;
37069;SDS011;22984;48.862;9.320;2023-02-12T09:35:32;57.20;;;39.25;;
37069;SDS011;22984;48.862;9.320;2023-02-12T09:37:58;53.28;;;38.40;;
37069;SDS011;22984;48.862;9.320;2023-02-12T09:43:14;53.60;;;38.40;;
37069;SDS011;22984;48.862;9.320;2023-02-12T09:45:47;57.33;;;39.83;;
37069;SDS011;22984;48.862;9.320;2023-02-12T09:50:47;59.33;;;42.88;;
37069;SDS011;22984;48.862;9.320;2023-02-12T09:53:17;57.22;;;41.05;;
37069;SDS011;22984;48.862;9.320;2023-02-12T09:55:44;53.90;;;38.53;;
37069;SDS011;22984;48.862;9.320;2023-02-12T09:58:14;54.53;;;37.45;;
37069;SDS011;22984;48.862;9.320;2023-02-12T10:00:41;52.95;;;36.42;;
37069;SDS011;22984;48.862;9.320;2023-02-12T10:03:12;48.63;;;36.15;;
37069;SDS011;22984;48.862;9.320;2023-02-12T10:05:41;45.75;;;33.00;;
37069;SDS011;22984;48.862;9.320;2023-02-12T10:10:58;33.03;;;26.33;;
37069;SDS011;22984;48.862;9.320;2023-02-12T10:28:38;17.67;;;14.48;;
37069;SDS011;22984;48.862;9.320;2023-02-12T10:33:48;10.80;;;9.45;;
37069;SDS011;22984;48.862;9.320;2023-02-12T10:36:20;7.65;;;6.90;;
37069;SDS011;22984;48.862;9.320;2023-02-12T10:38:48;8.40;;;7.60;;
37069;SDS011;22984;48.862;9.320;2023-02-12T10:41:15;11.70;;;8.75;;
37069;SDS011;22984;48.862;9.320;2023-02-12T10:43:41;20.08;;;13.32;;
37069;SDS011;22984;48.862;9.320;2023-02-12T10:46:12;44.22;;;25.50;;
37069;SDS011;22984;48.862;9.320;2023-02-12T10:48:39;26.27;;;15.27;;
37069;SDS011;22984;48.862;9.320;2023-02-12T10:56:11;16.17;;;12.13;;
37069;SDS011;22984;48.862;9.320;2023-02-12T10:58:57;9.23;;;6.53;;
37069;SDS011;22984;48.862;9.320;2023-02-12T11:01:30;10.80;;;7.20;;
37069;SDS011;22984;48.862;9.320;2023-02-12T11:03:57;22.33;;;14.40;;
37069;SDS011;22984;48.862;9.320;2023-02-12T11:06:25;33.75;;;20.60;;
37069;SDS011;22984;48.862;9.320;2023-02-12T11:08:52;9.18;;;8.32;;
37069;SDS011;22984;48.862;9.320;2023-02-12T11:11:35;11.57;;;10.43;;
37069;SDS011;22984;48.862;9.320;2023-02-12T11:14:03;10.05;;;9.13;;
37069;SDS011;22984;48.862;9.320;2023-02-12T11:18:57;5.82;;;5.22;;
37069;SDS011;22984;48.862;9.320;2023-02-12T11:21:23;5.00;;;4.60;;
37069;SDS011;22984;48.862;9.320;2023-02-12T11:23:49;5.22;;;4.88;;
37069;SDS011;22984;48.862;9.320;2023-02-12T11:31:21;5.40;;;4.90;;
37069;SDS011;22984;48.862;9.320;2023-02-12T11:34:05;6.43;;;5.80;;
37069;SDS011;22984;48.862;9.320;2023-02-12T11:36:32;7.68;;;6.50;;
37069;SDS011;22984;48.862;9.320;2023-02-12T11:38:58;6.43;;;5.82;;
37069;SDS011;22984;48.862;9.320;2023-02-12T11:41:35;5.37;;;4.97;;
37069;SDS011;22984;48.862;9.320;2023-02-12T11:44:11;4.70;;;4.30;;
37069;SDS011;22984;48.862;9.320;2023-02-12T11:46:38;4.70;;;4.30;;
37069;SDS011;22984;48.862;9.320;2023-02-12T11:49:04;4.73;;;4.30;;
37069;SDS011;22984;48.862;9.320;2023-02-12T11:51:33;6.22;;;5.70;;
37069;SDS011;22984;48.862;9.320;2023-02-12T11:54:02;7.88;;;7.20;;
37069;SDS011;22984;48.862;9.320;2023-02-12T11:56:41;5.20;;;4.78;;
37069;SDS011;22984;48.862;9.320;2023-02-12T11:59:10;5.53;;;5.03;;
37069;SDS011;22984;48.862;9.320;2023-02-12T12:01:37;5.20;;;4.80;;
37069;SDS011;22984;48.862;9.320;2023-02-12T12:04:07;4.45;;;4.15;;
37069;SDS011;22984;48.862;9.320;2023-02-12T12:14:06;3.92;;;3.63;;
37069;SDS011;22984;48.862;9.320;2023-02-12T12:16:41;4.37;;;3.77;;
37069;SDS011;22984;48.862;9.320;2023-02-12T12:19:27;3.40;;;3.20;;
37069;SDS011;22984;48.862;9.320;2023-02-12T12:30:17;3.35;;;3.15;;
37069;SDS011;22984;48.862;9.320;2023-02-12T12:32:45;3.90;;;3.60;;
37069;SDS011;22984;48.862;9.320;2023-02-12T12:35:12;3.35;;;3.15;;
37069;SDS011;22984;48.862;9.320;2023-02-12T12:40:15;4.17;;;3.77;;
37069;SDS011;22984;48.862;9.320;2023-02-12T12:42:51;4.00;;;3.70;;
37069;SDS011;22984;48.862;9.320;2023-02-12T12:45:25;4.70;;;4.40;;
37069;SDS011;22984;48.862;9.320;2023-02-12T12:50:28;3.83;;;3.53;;
37069;SDS011;22984;48.862;9.320;2023-02-12T12:58:32;3.80;;;3.60;;
37069;SDS011;22984;48.862;9.320;2023-02-12T13:11:16;3.85;;;3.60;;
37069;SDS011;22984;48.862;9.320;2023-02-12T13:13:47;4.03;;;3.83;;
37069;SDS011;22984;48.862;9.320;2023-02-12T13:16:27;4.53;;;4.27;;
37069;SDS011;22984;48.862;9.320;2023-02-12T13:21:42;4.90;;;4.60;;
37069;SDS011;22984;48.862;9.320;2023-02-12T13:24:24;4.50;;;4.22;;
37069;SDS011;22984;48.862;9.320;2023-02-12T13:31:58;4.50;;;4.30;;
37069;SDS011;22984;48.862;9.320;2023-02-12T13:34:26;5.10;;;4.80;;
37069;SDS011;22984;48.862;9.320;2023-02-12T13:36:54;4.70;;;4.40;;
37069;SDS011;22984;48.862;9.320;2023-02-12T13:41:51;4.32;;;4.05;;
37069;SDS011;22984;48.862;9.320;2023-02-12T13:44:19;4.00;;;3.78;;
37069;SDS011;22984;48.862;9.320;2023-02-12T13:49:24;6.30;;;6.00;;
37069;SDS011;22984;48.862;9.320;2023-02-12T13:51:58;3.60;;;3.33;;
37069;SDS011;22984;48.862;9.320;2023-02-12T13:57:01;3.13;;;3.00;;
37069;SDS011;22984;48.862;9.320;2023-02-12T14:02:00;3.03;;;2.92;;
37069;SDS011;22984;48.862;9.320;2023-02-12T14:04:28;2.53;;;2.42;;
37069;SDS011;22984;48.862;9.320;2023-02-12T14:06:56;2.35;;;2.25;;
37069;SDS011;22984;48.862;9.320;2023-02-12T14:09:26;1.93;;;1.83;;
37069;SDS011;22984;48.862;9.320;2023-02-12T14:11:56;1.60;;;1.50;;
37069;SDS011;22984;48.862;9.320;2023-02-12T14:14:29;2.10;;;2.00;;
37069;SDS011;22984;48.862;9.320;2023-02-12T20:14:16;22.33;;;12.88;;
37069;SDS011;22984;48.862;9.320;2023-02-12T20:16:44;19.10;;;13.20;;
37069;SDS011;22984;48.862;9.320;2023-02-12T20:21:38;20.33;;;13.60;;
37069;SDS011;22984;48.862;9.320;2023-02-12T20:24:04;22.02;;;12.07;;
37069;SDS011;22984;48.862;9.320;2023-02-12T20:26:30;22.45;;;12.93;;
37069;SDS011;22984;48.862;9.320;2023-02-12T20:28:57;24.20;;;15.93;;
37069;SDS011;22984;48.862;9.320;2023-02-12T20:31:27;21.33;;;15.43;;
37069;SDS011;22984;48.862;9.320;2023-02-12T20:33:55;21.37;;;14.27;;
37069;SDS011;22984;48.862;9.320;2023-02-12T20:36:21;19.17;;;12.90;;
37069;SDS011;22984;48.862;9.320;2023-02-12T20:38:49;20.52;;;13.30;;
37069;SDS011;22984;48.862;9.320;2023-02-12T20:41:15;20.35;;;12.82;;
37069;SDS011;22984;48.862;9.320;2023-02-12T20:43:42;19.23;;;12.23;;
37069;SDS011;22984;48.862;9.320;2023-02-12T20:46:09;18.10;;;12.75;;
37069;SDS011;22984;48.862;9.320;2023-02-12T20:48:35;17.83;;;12.13;;
37069;SDS011;22984;48.862;9.320;2023-02-12T20:51:05;18.40;;;12.27;;
37069;SDS011;22984;48.862;9.320;2023-02-12T20:53:32;19.73;;;13.02;;
37069;SDS011;22984;48.862;9.320;2023-02-12T20:56:05;27.15;;;15.65;;
37069;SDS011;22984;48.862;9.320;2023-02-12T20:58:32;31.95;;;23.95;;
37069;SDS011;22984;48.862;9.320;2023-02-12T21:01:02;24.42;;;17.00;;
37069;SDS011;22984;48.862;9.320;2023-02-12T21:03:28;22.67;;;14.77;;
37069;SDS011;22984;48.862;9.320;2023-02-12T21:05:54;19.77;;;13.15;;
37069;SDS011;22984;48.862;9.320;2023-02-12T21:08:20;17.63;;;12.40;;
37069;SDS011;22984;48.862;9.320;2023-02-12T21:10:46;18.25;;;11.70;;
37069;SDS011;22984;48.862;9.320;2023-02-12T21:13:12;19.77;;;12.90;;
37069;SDS011;22984;48.862;9.320;2023-02-12T21:15:38;22.48;;;13.98;;
37069;SDS011;22984;48.862;9.320;2023-02-12T21:18:04;21.25;;;14.07;;
37069;SDS011;22984;48.862;9.320;2023-02-12T21:20:30;19.38;;;12.80;;
37069;SDS011;22984;48.862;9.320;2023-02-12T21:22:56;18.70;;;12.38;;
37069;SDS011;22984;48.862;9.320;2023-02-12T21:25:22;21.02;;;13.00;;
37069;SDS011;22984;48.862;9.320;2023-02-12T21:27:48;23.20;;;14.02;;
37069;SDS011;22984;48.862;9.320;2023-02-12T21:30:14;26.85;;;16.17;;
37069;SDS011;22984;48.862;9.320;2023-02-12T21:32:41;29.13;;;17.00;;
37069;SDS011;22984;48.862;9.320;2023-02-12T21:35:07;25.15;;;15.95;;
37069;SDS011;22984;48.862;9.320;2023-02-12T21:37:33;27.52;;;15.52;;
37069;SDS011;22984;48.862;9.320;2023-02-12T21:39:59;30.15;;;16.00;;
37069;SDS011;22984;48.862;9.320;2023-02-12T21:42:25;23.15;;;14.80;;
37069;SDS011;22984;48.862;9.320;2023-02-12T21:44:51;22.23;;;14.00;;
37069;SDS011;22984;48.862;9.320;2023-02-12T21:47:17;23.23;;;14.52;;
37069;SDS011;22984;48.862;9.320;2023-02-12T21:49:43;24.77;;;15.43;;
37069;SDS011;22984;48.862;9.320;2023-02-12T21:52:09;25.45;;;15.50;;
37069;SDS011;22984;48.862;9.320;2023-02-12T21:54:35;27.27;;;15.45;;
37069;SDS011;22984;48.862;9.320;2023-02-12T21:57:01;28.17;;;17.03;;
37069;SDS011;22984;48.862;9.320;2023-02-12T21:59:27;30.20;;;16.98;;
37069;SDS011;22984;48.862;9.320;2023-02-12T22:01:54;36.83;;;20.17;;
37069;SDS011;22984;48.862;9.320;2023-02-12T22:04:22;32.10;;;17.47;;
37069;SDS011;22984;48.862;9.320;2023-02-12T22:06:48;31.02;;;18.55;;
37069;SDS011;22984;48.862;9.320;2023-02-12T22:09:15;30.52;;;16.52;;
37069;SDS011;22984;48.862;9.320;2023-02-12T22:11:42;31.17;;;17.02;;
37069;SDS011;22984;48.862;9.320;2023-02-12T22:14:09;34.28;;;17.60;;
37069;SDS011;22984;48.862;9.320;2023-02-12T22:16:36;29.92;;;16.98;;
37069;SDS011;22984;48.862;9.320;2023-02-12T22:19:03;31.20;;;17.53;;
37069;SDS011;22984;48.862;9.320;2023-02-12T22:21:31;37.47;;;19.00;;
37069;SDS011;22984;48.862;9.320;2023-02-12T22:23:58;31.63;;;17.33;;
37069;SDS011;22984;48.862;9.320;2023-02-12T22:26:25;34.83;;;20.13;;
37069;SDS011;22984;48.862;9.320;2023-02-12T22:28:56;34.20;;;19.70;;
37069;SDS011;22984;48.862;9.320;2023-02-12T22:31:23;34.25;;;19.63;;
37069;SDS011;22984;48.862;9.320;2023-02-12T22:33:49;39.85;;;19.90;;
37069;SDS011;22984;48.862;9.320;2023-02-12T22:36:16;38.20;;;21.48;;
37069;SDS011;22984;48.862;9.320;2023-02-12T22:38:42;38.73;;;21.37;;
37069;SDS011;22984;48.862;9.320;2023-02-12T22:41:08;38.08;;;21.70;;
37069;SDS011;22984;48.862;9.320;2023-02-12T22:43:36;39.00;;;21.92;;
37069;SDS011;22984;48.862;9.320;2023-02-12T22:46:02;35.47;;;21.20;;